createdAt,value
2018-12-19T00:01:52.279Z,36.97
2018-12-19T00:04:20.356Z,47.03
2018-12-19T00:06:48.819Z,39.03
2018-12-19T00:09:16.756Z,39.90
2018-12-19T00:11:45.118Z,37.83
2018-12-19T00:14:14.580Z,41.70
2018-12-19T00:16:42.951Z,47.30
2018-12-19T00:19:11.247Z,46.80
2018-12-19T00:21:39.940Z,41.73
2018-12-19T00:24:08.703Z,42.97
2018-12-19T00:26:36.815Z,45.53
2018-12-19T00:29:05.216Z,47.03
2018-12-19T00:31:33.415Z,45.17
2018-12-19T00:34:01.382Z,40.13
2018-12-19T00:36:29.262Z,44.93
2018-12-19T00:38:57.483Z,47.20
2018-12-19T00:41:25.806Z,48.03
2018-12-19T00:43:54.063Z,43.63
2018-12-19T00:46:21.961Z,46.53
2018-12-19T00:48:52.556Z,50.50
2018-12-19T00:51:22.902Z,46.27
2018-12-19T00:53:51.067Z,47.90
2018-12-19T00:56:20.703Z,38.97
2018-12-19T00:58:48.653Z,44.67
2018-12-19T01:01:17.324Z,48.20
2018-12-19T01:03:45.627Z,52.20
2018-12-19T01:06:15.316Z,43.17
2018-12-19T01:08:43.603Z,48.60
2018-12-19T01:11:12.271Z,47.60
2018-12-19T01:13:40.171Z,51.07
2018-12-19T01:16:08.275Z,50.93
2018-12-19T01:18:36.794Z,44.37
2018-12-19T01:21:05.063Z,47.13
2018-12-19T01:23:33.373Z,46.97
2018-12-19T01:26:01.834Z,52.07
2018-12-19T01:28:29.922Z,51.13
2018-12-19T01:30:58.320Z,47.10
2018-12-19T01:33:26.571Z,47.13
2018-12-19T01:35:54.510Z,46.40
2018-12-19T01:38:23.111Z,47.53
2018-12-19T01:40:51.275Z,47.87
2018-12-19T01:43:19.336Z,50.43
2018-12-19T01:45:47.407Z,44.87
2018-12-19T01:48:16.077Z,44.40
2018-12-19T01:50:44.455Z,42.80
2018-12-19T01:53:12.643Z,42.43
2018-12-19T01:55:41.411Z,41.93
2018-12-19T01:58:09.471Z,38.47
2018-12-19T02:00:37.571Z,42.10
2018-12-19T02:03:06.285Z,44.40
2018-12-19T02:05:34.404Z,38.33
2018-12-19T02:08:02.715Z,35.50
2018-12-19T02:10:31.104Z,38.03
2018-12-19T02:12:59.354Z,39.33
2018-12-19T02:15:27.335Z,37.37
2018-12-19T02:17:55.291Z,34.60
2018-12-19T02:20:23.281Z,38.70
2018-12-19T02:22:51.165Z,38.03
2018-12-19T02:25:19.604Z,32.87
2018-12-19T02:27:47.657Z,37.63
2018-12-19T02:30:15.553Z,36.37
2018-12-19T02:32:44.252Z,34.57
2018-12-19T02:35:12.722Z,30.30
2018-12-19T02:37:40.828Z,33.63
2018-12-19T02:40:08.938Z,34.23
2018-12-19T02:42:37.325Z,36.37
2018-12-19T02:45:05.599Z,34.23
2018-12-19T02:47:33.475Z,30.23
2018-12-19T02:50:01.843Z,31.10
2018-12-19T02:52:29.714Z,31.27
2018-12-19T02:54:57.998Z,34.60
2018-12-19T02:57:25.984Z,32.00
2018-12-19T02:59:54.255Z,32.67
2018-12-19T03:02:22.181Z,32.47
2018-12-19T03:04:50.965Z,31.87
2018-12-19T03:07:19.159Z,35.10
2018-12-19T03:09:47.449Z,31.90
2018-12-19T03:12:15.535Z,33.80
2018-12-19T03:14:43.774Z,32.83
2018-12-19T03:17:12.666Z,30.23
2018-12-19T03:19:41.235Z,30.90
2018-12-19T03:22:09.288Z,30.73
2018-12-19T03:24:37.183Z,32.07
2018-12-19T03:27:05.573Z,33.53
2018-12-19T03:29:33.800Z,33.23
2018-12-19T03:32:02.352Z,34.93
2018-12-19T03:34:30.871Z,34.63
2018-12-19T03:36:58.898Z,32.20
2018-12-19T03:39:26.988Z,34.50
2018-12-19T03:41:55.272Z,37.20
2018-12-19T03:44:23.793Z,40.27
2018-12-19T03:46:52.349Z,34.17
2018-12-19T03:49:20.912Z,31.23
2018-12-19T03:51:49.013Z,34.53
2018-12-19T03:54:18.012Z,33.57
2018-12-19T03:56:46.723Z,34.77
2018-12-19T03:59:14.796Z,38.03
2018-12-19T04:01:43.526Z,38.87
2018-12-19T04:04:11.482Z,34.70
2018-12-19T04:06:39.713Z,36.53
2018-12-19T04:09:08.494Z,34.60
2018-12-19T04:11:36.917Z,38.60
2018-12-19T04:14:05.083Z,35.33
2018-12-19T04:16:33.885Z,32.73
2018-12-19T04:19:01.980Z,33.50
2018-12-19T04:21:30.587Z,35.40
2018-12-19T04:23:59.147Z,33.30
2018-12-19T04:26:27.361Z,32.53
2018-12-19T04:28:55.284Z,31.80
2018-12-19T04:31:23.380Z,34.83
2018-12-19T04:33:52.070Z,35.97
2018-12-19T04:36:20.231Z,33.57
2018-12-19T04:38:48.603Z,32.73
2018-12-19T04:41:17.214Z,33.93
2018-12-19T04:43:45.206Z,36.47
2018-12-19T04:46:13.402Z,36.20
2018-12-19T04:48:41.613Z,30.73
2018-12-19T04:51:09.647Z,33.47
2018-12-19T04:53:38.283Z,29.50
2018-12-19T04:56:06.239Z,34.40
2018-12-19T04:58:34.654Z,32.77
2018-12-19T05:01:09.820Z,31.40
2018-12-19T05:03:38.520Z,32.50
2018-12-19T05:06:11.353Z,34.17
2018-12-19T05:08:41.127Z,32.70
2018-12-19T05:11:09.074Z,34.47
2018-12-19T05:13:37.035Z,32.30
2018-12-19T05:16:06.127Z,29.90
2018-12-19T05:18:35.585Z,32.90
2018-12-19T05:21:03.670Z,31.60
2018-12-19T05:23:31.783Z,33.03
2018-12-19T05:25:59.691Z,30.43
2018-12-19T05:28:27.684Z,31.37
2018-12-19T05:30:55.609Z,30.60
2018-12-19T05:33:23.559Z,33.40
2018-12-19T05:35:51.429Z,31.87
2018-12-19T05:38:19.610Z,29.27
2018-12-19T05:40:47.676Z,28.30
2018-12-19T05:43:15.572Z,28.03
2018-12-19T05:45:43.551Z,33.13
2018-12-19T05:48:11.423Z,31.63
2018-12-19T05:50:39.405Z,27.87
2018-12-19T05:53:07.491Z,31.47
2018-12-19T05:55:35.401Z,26.07
2018-12-19T05:58:03.271Z,26.17
2018-12-19T06:00:31.226Z,26.87
2018-12-19T06:02:59.155Z,27.60
2018-12-19T06:05:27.334Z,23.93
2018-12-19T06:07:55.199Z,26.97
2018-12-19T06:10:26.200Z,24.73
2018-12-19T06:12:53.757Z,25.23
2018-12-19T06:15:21.860Z,84.47
2018-12-19T06:17:51.011Z,27.77
2018-12-19T06:20:19.428Z,27.80
2018-12-19T06:22:47.771Z,28.97
2018-12-19T06:25:16.328Z,24.50
2018-12-19T06:27:45.939Z,22.33
2018-12-19T06:30:14.132Z,21.77
2018-12-19T06:32:42.259Z,23.90
2018-12-19T06:35:10.288Z,23.23
2018-12-19T06:37:38.387Z,22.40
2018-12-19T06:40:08.011Z,23.30
2018-12-19T06:42:36.077Z,24.27
2018-12-19T06:45:05.224Z,21.37
2018-12-19T06:47:34.111Z,25.60
2018-12-19T06:50:02.186Z,21.60
2018-12-19T06:52:30.231Z,24.03
2018-12-19T06:54:59.339Z,22.47
2018-12-19T06:57:27.371Z,20.70
2018-12-19T06:59:55.366Z,21.93
2018-12-19T07:02:24.195Z,25.33
2018-12-19T07:04:52.291Z,22.23
2018-12-19T07:07:20.275Z,23.13
2018-12-19T07:09:48.707Z,21.00
2018-12-19T07:12:16.651Z,23.40
2018-12-19T07:14:44.647Z,22.93
2018-12-19T07:17:13.469Z,20.13
2018-12-19T07:19:41.384Z,19.37
2018-12-19T07:22:09.353Z,20.30
2018-12-19T07:24:37.517Z,22.23
2018-12-19T07:27:05.449Z,20.57
2018-12-19T07:29:33.311Z,20.13
2018-12-19T07:32:01.195Z,21.20
2018-12-19T07:34:29.315Z,19.53
2018-12-19T07:36:57.279Z,19.63
2018-12-19T07:39:26.183Z,20.47
2018-12-19T07:41:54.315Z,23.73
2018-12-19T07:44:22.127Z,19.17
2018-12-19T07:46:51.225Z,20.50
2018-12-19T07:49:19.325Z,19.93
2018-12-19T07:51:53.073Z,22.97
2018-12-19T07:54:21.848Z,18.97
2018-12-19T07:56:50.380Z,23.93
2018-12-19T07:59:18.211Z,19.70
2018-12-19T08:01:46.228Z,19.73
2018-12-19T08:04:14.688Z,25.87
2018-12-19T08:06:42.810Z,19.40
2018-12-19T08:09:12.898Z,19.63
2018-12-19T08:11:40.971Z,19.13
2018-12-19T08:14:08.779Z,20.73
2018-12-19T08:16:36.604Z,23.20
2018-12-19T08:19:05.914Z,21.57
2018-12-19T08:21:34.071Z,19.47
2018-12-19T08:24:01.946Z,20.57
2018-12-19T08:26:30.210Z,23.00
2018-12-19T08:28:58.268Z,21.57
2018-12-19T08:31:27.359Z,19.47
2018-12-19T08:33:55.259Z,21.07
2018-12-19T08:36:23.209Z,18.43
2018-12-19T08:38:51.664Z,19.73
2018-12-19T08:41:19.603Z,18.77
2018-12-19T08:43:47.731Z,21.63
2018-12-19T08:46:16.147Z,21.80
2018-12-19T08:48:44.241Z,19.80
2018-12-19T08:51:12.194Z,23.17
2018-12-19T08:53:40.272Z,23.67
2018-12-19T08:56:08.192Z,18.43
2018-12-19T08:58:36.407Z,21.07
2018-12-19T09:01:04.396Z,21.43
2018-12-19T09:03:32.339Z,20.13
2018-12-19T09:06:03.225Z,20.10
2018-12-19T09:08:31.812Z,21.10
2018-12-19T09:11:05.614Z,21.83
2018-12-19T09:13:30.877Z,21.97
2018-12-19T09:16:02.964Z,21.70
2018-12-19T09:18:30.919Z,25.87
2018-12-19T09:20:58.929Z,24.17
2018-12-19T09:23:27.836Z,22.60
2018-12-19T09:25:56.070Z,24.10
2018-12-19T09:28:23.880Z,28.37
2018-12-19T09:30:51.920Z,23.13
2018-12-19T09:33:19.790Z,25.37
2018-12-19T09:35:47.660Z,25.53
2018-12-19T09:38:16.030Z,24.13
2018-12-19T09:40:44.104Z,24.10
2018-12-19T09:43:11.990Z,24.20
2018-12-19T09:45:40.289Z,25.27
2018-12-19T09:48:08.311Z,23.93
2018-12-19T09:50:36.320Z,23.00
2018-12-19T09:53:04.471Z,23.77
2018-12-19T09:55:32.335Z,24.17
2018-12-19T09:58:00.320Z,23.23
2018-12-19T10:00:28.811Z,19.00
2018-12-19T10:02:56.910Z,25.17
2018-12-19T10:05:25.055Z,21.90
2018-12-19T10:07:53.152Z,21.90
2018-12-19T10:10:21.287Z,21.93
2018-12-19T10:12:49.166Z,22.93
2018-12-19T10:15:17.428Z,23.30
2018-12-19T10:17:45.264Z,21.33
2018-12-19T10:20:13.504Z,24.13
2018-12-19T10:22:42.365Z,24.67
2018-12-19T10:25:13.752Z,24.90
2018-12-19T10:27:41.720Z,23.40
2018-12-19T10:30:11.303Z,20.43
2018-12-19T10:32:39.683Z,21.87
2018-12-19T10:35:09.274Z,20.87
2018-12-19T10:37:37.505Z,19.37
2018-12-19T10:40:08.204Z,21.30
2018-12-19T10:42:36.154Z,18.50
2018-12-19T10:45:05.680Z,18.00
2018-12-19T10:47:33.752Z,20.60
2018-12-19T10:50:01.719Z,19.77
2018-12-19T10:52:29.539Z,21.80
2018-12-19T10:54:57.399Z,20.03
2018-12-19T10:57:25.876Z,22.17
2018-12-19T10:59:53.759Z,25.20
2018-12-19T11:02:21.567Z,20.27
2018-12-19T11:04:50.627Z,23.60
2018-12-19T11:07:18.468Z,23.30
2018-12-19T11:09:46.267Z,23.67
2018-12-19T11:12:14.476Z,22.53
2018-12-19T11:14:42.308Z,25.70
2018-12-19T11:17:10.407Z,23.90
2018-12-19T11:19:40.132Z,23.80
2018-12-19T11:22:10.042Z,24.13
2018-12-19T11:24:38.115Z,27.60
2018-12-19T11:27:06.015Z,26.20
2018-12-19T11:29:33.926Z,29.00
2018-12-19T11:32:01.833Z,26.77
2018-12-19T11:34:29.707Z,26.97
2018-12-19T11:36:57.866Z,26.73
2018-12-19T11:39:25.764Z,30.83
2018-12-19T11:41:53.711Z,28.07
2018-12-19T11:44:21.656Z,25.43
2018-12-19T11:46:49.723Z,28.17
2018-12-19T11:49:17.603Z,31.07
2018-12-19T11:51:45.468Z,30.97
2018-12-19T11:54:13.267Z,32.33
2018-12-19T11:56:41.338Z,33.33
2018-12-19T11:59:09.290Z,37.33
2018-12-19T12:01:41.316Z,32.63
2018-12-19T12:04:07.235Z,35.50
2018-12-19T12:06:35.399Z,32.13
2018-12-19T12:09:05.307Z,32.60
2018-12-19T12:11:33.142Z,37.70
2018-12-19T12:14:01.391Z,33.63
2018-12-19T12:16:29.514Z,36.83
2018-12-19T12:19:08.908Z,39.33
2018-12-19T12:21:36.840Z,37.43
2018-12-19T12:24:05.668Z,38.97
2018-12-19T12:26:34.308Z,37.97
2018-12-19T12:29:02.140Z,41.87
2018-12-19T12:31:30.599Z,57.83
2018-12-19T12:33:58.473Z,38.77
2018-12-19T12:36:26.292Z,33.90
2018-12-19T12:38:54.615Z,35.33
2018-12-19T12:41:22.584Z,40.53
2018-12-19T12:43:50.471Z,40.60
2018-12-19T12:46:18.424Z,33.30
2018-12-19T12:48:46.278Z,36.87
2018-12-19T12:51:14.317Z,34.37
2018-12-19T12:53:42.379Z,39.17
2018-12-19T12:56:10.351Z,37.80
2018-12-19T12:58:38.219Z,37.10
2018-12-19T13:01:06.361Z,41.00
2018-12-19T13:03:34.203Z,35.60
2018-12-19T13:06:02.057Z,42.07
2018-12-19T13:08:30.196Z,37.20
2018-12-19T13:10:58.067Z,37.17
2018-12-19T13:13:27.983Z,37.13
2018-12-19T13:15:56.747Z,36.17
2018-12-19T13:18:25.030Z,31.57
2018-12-19T13:20:52.909Z,33.00
2018-12-19T13:23:20.760Z,38.13
2018-12-19T13:25:48.622Z,34.67
2018-12-19T13:28:16.588Z,34.70
2018-12-19T13:30:44.527Z,37.73
2018-12-19T13:33:12.835Z,32.63
2018-12-19T13:35:41.427Z,36.30
2018-12-19T13:38:09.282Z,35.40
2018-12-19T13:40:37.146Z,36.13
2018-12-19T13:43:05.224Z,38.87
2018-12-19T13:45:33.143Z,31.00
2018-12-19T13:48:01.123Z,35.40
2018-12-19T13:50:29.135Z,34.70
2018-12-19T13:52:57.323Z,34.13
2018-12-19T13:55:25.215Z,32.80
2018-12-19T13:57:53.036Z,32.43
2018-12-19T14:00:21.643Z,33.20
2018-12-19T14:02:49.531Z,30.57
2018-12-19T14:05:17.786Z,32.13
2018-12-19T14:07:45.640Z,39.40
2018-12-19T14:10:13.571Z,35.93
2018-12-19T14:12:42.787Z,34.90
2018-12-19T14:15:10.687Z,30.67
2018-12-19T14:17:38.585Z,34.90
2018-12-19T14:20:08.048Z,34.80
2018-12-19T14:22:36.041Z,34.40
2018-12-19T14:25:04.339Z,38.50
2018-12-19T14:27:32.199Z,32.97
2018-12-19T14:30:00.151Z,35.90
2018-12-19T14:32:28.690Z,34.20
2018-12-19T14:34:56.561Z,35.90
2018-12-19T14:37:24.465Z,31.23
2018-12-19T14:39:52.339Z,32.63
2018-12-19T14:42:20.184Z,35.00
2018-12-19T14:44:48.359Z,33.60
2018-12-19T14:47:16.323Z,35.53
2018-12-19T14:49:44.288Z,35.43
2018-12-19T14:52:12.495Z,34.47
2018-12-19T14:54:41.248Z,34.80
2018-12-19T14:57:09.124Z,34.23
2018-12-19T14:59:37.558Z,33.03
2018-12-19T15:02:05.622Z,36.47
2018-12-19T15:04:33.435Z,37.97
2018-12-19T15:07:02.667Z,34.07
2018-12-19T15:09:30.878Z,36.67
2018-12-19T15:11:58.684Z,32.93
2018-12-19T15:14:27.017Z,35.83
2018-12-19T15:16:55.448Z,36.07
2018-12-19T15:19:24.435Z,37.67
2018-12-19T15:21:52.932Z,61.20
2018-12-19T15:24:20.964Z,34.60
2018-12-19T15:26:49.251Z,34.80
2018-12-19T15:29:17.175Z,34.90
2018-12-19T15:31:45.030Z,37.43
2018-12-19T15:34:13.347Z,37.80
2018-12-19T15:36:41.412Z,36.70
2018-12-19T15:39:09.836Z,41.23
2018-12-19T15:41:37.791Z,37.63
2018-12-19T15:44:05.762Z,38.43
2018-12-19T15:46:34.586Z,114.87
2018-12-19T15:49:04.641Z,40.57
2018-12-19T15:51:34.471Z,35.53
2018-12-19T15:54:14.595Z,42.20
2018-12-19T15:56:43.107Z,32.80
2018-12-19T15:59:11.212Z,39.37
2018-12-19T16:01:39.551Z,38.67
2018-12-19T16:04:09.290Z,38.73
2018-12-19T16:06:37.467Z,40.27
2018-12-19T16:09:06.870Z,37.00
2018-12-19T16:11:34.729Z,37.27
2018-12-19T16:14:02.905Z,36.77
2018-12-19T16:16:32.232Z,39.17
2018-12-19T16:19:00.210Z,40.23
2018-12-19T16:21:28.060Z,38.60
2018-12-19T16:23:56.888Z,40.93
2018-12-19T16:26:25.411Z,38.60
2018-12-19T16:28:54.023Z,36.73
2018-12-19T16:31:23.770Z,37.17
2018-12-19T16:33:51.802Z,39.00
2018-12-19T16:36:19.821Z,37.17
2018-12-19T16:38:47.996Z,40.40
2018-12-19T16:41:15.875Z,34.97
2018-12-19T16:43:44.035Z,39.97
2018-12-19T16:46:11.910Z,36.90
2018-12-19T16:48:39.822Z,33.93
2018-12-19T16:51:08.864Z,32.47
2018-12-19T16:53:37.096Z,32.37
2018-12-19T16:56:04.989Z,32.50
2018-12-19T16:58:33.191Z,28.20
2018-12-19T17:01:02.562Z,30.17
2018-12-19T17:03:30.488Z,32.53
2018-12-19T17:05:58.335Z,31.97
2018-12-19T17:08:26.196Z,30.90
2018-12-19T17:10:54.331Z,29.80
2018-12-19T17:13:22.290Z,33.53
2018-12-19T17:15:50.359Z,29.70
2018-12-19T17:18:18.468Z,31.03
2018-12-19T17:20:46.308Z,28.90
2018-12-19T17:23:14.124Z,27.60
2018-12-19T17:25:42.210Z,29.83
2018-12-19T17:28:10.370Z,28.53
2018-12-19T17:30:38.203Z,30.63
2018-12-19T17:33:06.132Z,30.30
2018-12-19T17:35:34.794Z,28.90
2018-12-19T17:38:03.061Z,31.47
2018-12-19T17:40:30.940Z,29.60
2018-12-19T17:42:59.467Z,27.17
2018-12-19T17:45:30.732Z,30.97
2018-12-19T17:47:59.668Z,29.93
2018-12-19T17:50:29.203Z,26.90
2018-12-19T17:52:58.133Z,31.47
2018-12-19T17:55:32.805Z,32.60
2018-12-19T17:58:01.506Z,29.63
2018-12-19T18:00:37.839Z,35.60
2018-12-19T18:03:10.834Z,34.83
2018-12-19T18:05:42.709Z,34.07
2018-12-19T18:08:11.386Z,32.60
2018-12-19T18:10:40.823Z,38.63
2018-12-19T18:13:09.027Z,35.73
2018-12-19T18:15:37.509Z,38.83
2018-12-19T18:18:10.560Z,37.20
2018-12-19T18:20:40.410Z,41.13
2018-12-19T18:23:08.808Z,37.97
2018-12-19T18:25:36.992Z,30.87
2018-12-19T18:28:05.227Z,39.93
2018-12-19T18:30:34.171Z,39.20
2018-12-19T18:33:06.319Z,42.37
2018-12-19T18:35:40.235Z,43.37
2018-12-19T18:38:08.165Z,44.77
2018-12-19T18:40:36.131Z,43.60
2018-12-19T18:43:05.414Z,45.90
2018-12-19T18:45:33.227Z,48.80
2018-12-19T18:48:01.047Z,43.80
2018-12-19T18:50:30.930Z,43.83
2018-12-19T18:52:58.937Z,46.70
2018-12-19T18:55:26.879Z,41.47
2018-12-19T18:57:55.215Z,43.23
2018-12-19T19:00:29.744Z,41.03
2018-12-19T19:02:57.574Z,40.17
2018-12-19T19:05:26.080Z,39.87
2018-12-19T19:07:55.478Z,37.90
2018-12-19T19:10:23.442Z,36.23
2018-12-19T19:12:52.705Z,37.43
2018-12-19T19:15:20.564Z,39.57
2018-12-19T19:17:48.417Z,39.20
2018-12-19T19:20:17.496Z,38.57
2018-12-19T19:22:47.521Z,36.57
2018-12-19T19:25:15.429Z,43.07
2018-12-19T19:27:43.541Z,44.43
2018-12-19T19:30:11.572Z,43.33
2018-12-19T19:32:40.660Z,41.97
2018-12-19T19:35:08.551Z,42.30
2018-12-19T19:37:36.402Z,46.13
2018-12-19T19:40:06.957Z,106.63
2018-12-19T19:42:35.008Z,42.53
2018-12-19T19:45:03.272Z,42.10
2018-12-19T19:47:31.391Z,48.47
2018-12-19T19:49:59.420Z,41.93
2018-12-19T19:52:27.324Z,43.93
2018-12-19T19:54:55.416Z,40.93
2018-12-19T19:57:23.549Z,35.80
2018-12-19T19:59:51.397Z,39.67
2018-12-19T20:02:19.235Z,39.03
2018-12-19T20:04:47.148Z,42.40
2018-12-19T20:07:16.005Z,43.57
2018-12-19T20:09:44.208Z,43.10
2018-12-19T20:12:12.500Z,39.73
2018-12-19T20:14:40.938Z,38.37
2018-12-19T20:17:08.792Z,36.63
2018-12-19T20:19:37.267Z,37.37
2018-12-19T20:22:06.687Z,34.77
2018-12-19T20:24:34.853Z,34.93
2018-12-19T20:27:03.104Z,38.77
2018-12-19T20:29:31.279Z,35.30
2018-12-19T20:31:59.309Z,32.23
2018-12-19T20:34:27.176Z,36.83
2018-12-19T20:36:55.240Z,31.90
2018-12-19T20:39:23.270Z,27.13
2018-12-19T20:41:51.548Z,28.40
2018-12-19T20:44:19.923Z,30.23
2018-12-19T20:46:47.809Z,34.77
2018-12-19T20:49:17.178Z,33.33
2018-12-19T20:51:45.085Z,29.80
2018-12-19T20:54:12.944Z,29.33
2018-12-19T20:56:40.811Z,29.13
2018-12-19T20:59:09.421Z,26.97
2018-12-19T21:01:37.459Z,27.20
2018-12-19T21:04:05.941Z,23.97
2018-12-19T21:06:33.912Z,28.30
2018-12-19T21:09:01.799Z,24.70
2018-12-19T21:11:30.008Z,25.43
2018-12-19T21:13:57.875Z,27.47
2018-12-19T21:16:27.832Z,24.77
2018-12-19T21:18:56.827Z,25.67
2018-12-19T21:21:24.900Z,24.90
2018-12-19T21:23:52.779Z,24.43
2018-12-19T21:26:20.593Z,24.00
2018-12-19T21:28:48.451Z,26.53
2018-12-19T21:31:16.279Z,27.50
2018-12-19T21:33:44.351Z,24.93
2018-12-19T21:36:12.220Z,25.10
2018-12-19T21:38:40.483Z,23.23
2018-12-19T21:41:08.851Z,21.63
2018-12-19T21:43:37.024Z,20.90
2018-12-19T21:46:05.127Z,40.30
2018-12-19T21:48:33.227Z,26.60
2018-12-19T21:51:01.464Z,23.93
2018-12-19T21:53:29.329Z,23.60
2018-12-19T21:55:57.863Z,22.80
2018-12-19T21:58:25.796Z,24.73
2018-12-19T22:00:53.705Z,22.57
2018-12-19T22:03:21.537Z,22.17
2018-12-19T22:05:50.004Z,20.97
2018-12-19T22:08:18.026Z,23.57
2018-12-19T22:10:46.389Z,23.50
2018-12-19T22:13:14.786Z,20.73
2018-12-19T22:15:44.059Z,24.77
2018-12-19T22:18:18.084Z,21.63
2018-12-19T22:20:46.243Z,23.43
2018-12-19T22:23:14.707Z,22.07
2018-12-19T22:25:42.951Z,20.20
2018-12-19T22:28:10.993Z,24.17
2018-12-19T22:30:39.268Z,23.53
2018-12-19T22:33:07.485Z,22.67
2018-12-19T22:35:35.498Z,22.83
2018-12-19T22:38:03.479Z,23.77
2018-12-19T22:40:31.378Z,24.03
2018-12-19T22:42:59.622Z,23.97
2018-12-19T22:45:27.692Z,23.63
2018-12-19T22:47:56.384Z,24.70
2018-12-19T22:50:24.719Z,21.67
2018-12-19T22:52:53.149Z,22.90
2018-12-19T22:55:21.125Z,22.63
2018-12-19T22:57:49.068Z,21.17
2018-12-19T23:00:17.346Z,20.30
2018-12-19T23:02:50.866Z,23.47
2018-12-19T23:05:20.962Z,20.77
2018-12-19T23:07:49.038Z,22.33
2018-12-19T23:10:17.512Z,20.60
2018-12-19T23:12:45.415Z,21.17
2018-12-19T23:15:13.462Z,20.87
2018-12-19T23:17:42.309Z,22.80
2018-12-19T23:20:10.614Z,26.70
2018-12-19T23:22:38.583Z,23.77
2018-12-19T23:25:07.377Z,23.50
2018-12-19T23:27:35.440Z,22.67
2018-12-19T23:30:03.919Z,20.80
2018-12-19T23:32:31.998Z,20.57
2018-12-19T23:35:00.774Z,21.37
2018-12-19T23:37:28.768Z,19.90
2018-12-19T23:39:56.899Z,20.27
2018-12-19T23:42:24.817Z,21.03
2018-12-19T23:44:52.757Z,23.87
2018-12-19T23:47:20.624Z,22.07
2018-12-19T23:49:48.770Z,23.20
2018-12-19T23:52:16.628Z,23.63
2018-12-19T23:54:44.580Z,23.30
2018-12-19T23:57:12.547Z,23.43
2018-12-19T23:59:40.440Z,22.00
